sensor_id;sensor_type;location;lat;lon;timestamp;temperature;humidity
11569;DHT22;5840;46.894;15.542;2023-03-13T00:02:27;1.40;99.90
11569;DHT22;5840;46.894;15.542;2023-03-13T00:04:54;1.50;99.90
11569;DHT22;5840;46.894;15.542;2023-03-13T00:07:21;1.50;99.90
11569;DHT22;5840;46.894;15.542;2023-03-13T00:09:48;1.50;99.90
11569;DHT22;5840;46.894;15.542;2023-03-13T00:12:15;1.50;99.90
11569;DHT22;5840;46.894;15.542;2023-03-13T00:14:42;1.50;99.90
11569;DHT22;5840;46.894;15.542;2023-03-13T00:17:09;1.50;99.90
11569;DHT22;5840;46.894;15.542;2023-03-13T00:19:38;1.50;99.90
11569;DHT22;5840;46.894;15.542;2023-03-13T00:22:05;1.50;99.90
11569;DHT22;5840;46.894;15.542;2023-03-13T00:24:32;1.50;99.90
11569;DHT22;5840;46.894;15.542;2023-03-13T00:26:58;1.50;99.90
11569;DHT22;5840;46.894;15.542;2023-03-13T00:29:29;1.50;99.90
11569;DHT22;5840;46.894;15.542;2023-03-13T00:31:56;1.50;99.90
11569;DHT22;5840;46.894;15.542;2023-03-13T00:34:23;1.50;99.90
11569;DHT22;5840;46.894;15.542;2023-03-13T00:36:53;1.40;99.90
11569;DHT22;5840;46.894;15.542;2023-03-13T00:39:20;1.40;99.90
11569;DHT22;5840;46.894;15.542;2023-03-13T00:41:47;1.40;99.90
11569;DHT22;5840;46.894;15.542;2023-03-13T00:44:14;1.40;99.90
11569;DHT22;5840;46.894;15.542;2023-03-13T00:46:41;1.40;99.90
11569;DHT22;5840;46.894;15.542;2023-03-13T00:49:08;1.40;99.90
11569;DHT22;5840;46.894;15.542;2023-03-13T00:51:35;1.40;99.90
11569;DHT22;5840;46.894;15.542;2023-03-13T00:54:04;1.40;99.90
11569;DHT22;5840;46.894;15.542;2023-03-13T00:56:30;1.40;99.90
11569;DHT22;5840;46.894;15.542;2023-03-13T00:58:58;1.40;99.90
11569;DHT22;5840;46.894;15.542;2023-03-13T01:01:29;1.40;99.90
11569;DHT22;5840;46.894;15.542;2023-03-13T01:03:58;1.40;99.90
11569;DHT22;5840;46.894;15.542;2023-03-13T01:06:27;1.40;99.90
11569;DHT22;5840;46.894;15.542;2023-03-13T01:08:55;1.40;99.90
11569;DHT22;5840;46.894;15.542;2023-03-13T01:11:25;1.30;99.90
11569;DHT22;5840;46.894;15.542;2023-03-13T01:13:54;1.30;99.90
11569;DHT22;5840;46.894;15.542;2023-03-13T01:16:21;1.20;99.90
11569;DHT22;5840;46.894;15.542;2023-03-13T01:18:51;1.10;99.90
11569;DHT22;5840;46.894;15.542;2023-03-13T01:21:20;1.10;99.90
11569;DHT22;5840;46.894;15.542;2023-03-13T01:23:48;1.10;99.90
11569;DHT22;5840;46.894;15.542;2023-03-13T01:26:16;1.10;99.90
11569;DHT22;5840;46.894;15.542;2023-03-13T01:28:44;1.10;99.90
11569;DHT22;5840;46.894;15.542;2023-03-13T01:31:12;1.20;99.90
11569;DHT22;5840;46.894;15.542;2023-03-13T01:33:40;1.10;99.90
11569;DHT22;5840;46.894;15.542;2023-03-13T01:36:08;1.20;99.90
11569;DHT22;5840;46.894;15.542;2023-03-13T01:38:35;1.10;99.90
11569;DHT22;5840;46.894;15.542;2023-03-13T01:41:02;1.10;99.90
11569;DHT22;5840;46.894;15.542;2023-03-13T01:43:30;1.10;99.90
11569;DHT22;5840;46.894;15.542;2023-03-13T01:46:02;1.10;99.90
11569;DHT22;5840;46.894;15.542;2023-03-13T01:48:35;1.10;99.90
11569;DHT22;5840;46.894;15.542;2023-03-13T01:51:05;1.10;99.90
11569;DHT22;5840;46.894;15.542;2023-03-13T01:53:36;1.10;99.90
11569;DHT22;5840;46.894;15.542;2023-03-13T01:56:07;1.10;99.90
11569;DHT22;5840;46.894;15.542;2023-03-13T01:58:36;1.10;99.90
11569;DHT22;5840;46.894;15.542;2023-03-13T02:01:05;1.10;99.90
11569;DHT22;5840;46.894;15.542;2023-03-13T02:03:32;1.10;99.90
11569;DHT22;5840;46.894;15.542;2023-03-13T02:06:01;1.10;99.90
11569;DHT22;5840;46.894;15.542;2023-03-13T02:08:34;1.00;99.90
11569;DHT22;5840;46.894;15.542;2023-03-13T02:11:08;1.00;99.90
11569;DHT22;5840;46.894;15.542;2023-03-13T02:13:36;1.00;99.90
11569;DHT22;5840;46.894;15.542;2023-03-13T02:16:05;0.90;99.90
11569;DHT22;5840;46.894;15.542;2023-03-13T02:18:35;0.90;99.90
11569;DHT22;5840;46.894;15.542;2023-03-13T02:21:09;0.90;99.90
11569;DHT22;5840;46.894;15.542;2023-03-13T02:23:42;0.90;99.90
11569;DHT22;5840;46.894;15.542;2023-03-13T02:26:13;0.90;99.90
11569;DHT22;5840;46.894;15.542;2023-03-13T02:28:40;0.90;99.90
11569;DHT22;5840;46.894;15.542;2023-03-13T02:31:08;0.80;99.90
11569;DHT22;5840;46.894;15.542;2023-03-13T02:33:38;0.80;99.90
11569;DHT22;5840;46.894;15.542;2023-03-13T02:36:06;0.80;99.90
11569;DHT22;5840;46.894;15.542;2023-03-13T02:38:36;0.80;99.90
11569;DHT22;5840;46.894;15.542;2023-03-13T02:41:05;0.80;99.90
11569;DHT22;5840;46.894;15.542;2023-03-13T02:43:35;0.70;99.90
11569;DHT22;5840;46.894;15.542;2023-03-13T02:46:06;0.70;99.90
11569;DHT22;5840;46.894;15.542;2023-03-13T02:48:36;0.70;99.90
11569;DHT22;5840;46.894;15.542;2023-03-13T02:51:07;0.70;99.90
11569;DHT22;5840;46.894;15.542;2023-03-13T02:53:37;0.80;99.90
11569;DHT22;5840;46.894;15.542;2023-03-13T02:56:05;0.70;99.90
11569;DHT22;5840;46.894;15.542;2023-03-13T02:58:39;0.70;99.90
11569;DHT22;5840;46.894;15.542;2023-03-13T03:01:06;0.70;99.90
11569;DHT22;5840;46.894;15.542;2023-03-13T03:03:33;0.70;99.90
11569;DHT22;5840;46.894;15.542;2023-03-13T03:06:02;0.60;99.90
11569;DHT22;5840;46.894;15.542;2023-03-13T03:08:29;0.70;99.90
11569;DHT22;5840;46.894;15.542;2023-03-13T03:10:56;0.60;99.90
11569;DHT22;5840;46.894;15.542;2023-03-13T03:13:23;0.60;99.90
11569;DHT22;5840;46.894;15.542;2023-03-13T03:15:51;0.60;99.90
11569;DHT22;5840;46.894;15.542;2023-03-13T03:18:18;0.70;99.90
11569;DHT22;5840;46.894;15.542;2023-03-13T03:20:45;0.60;99.90
11569;DHT22;5840;46.894;15.542;2023-03-13T03:23:12;0.60;99.90
11569;DHT22;5840;46.894;15.542;2023-03-13T03:25:39;0.60;99.90
11569;DHT22;5840;46.894;15.542;2023-03-13T03:28:06;0.60;99.90
11569;DHT22;5840;46.894;15.542;2023-03-13T03:30:33;0.60;99.90
11569;DHT22;5840;46.894;15.542;2023-03-13T03:33:03;0.60;99.90
11569;DHT22;5840;46.894;15.542;2023-03-13T03:35:30;0.50;99.90
11569;DHT22;5840;46.894;15.542;2023-03-13T03:37:58;0.40;99.90
11569;DHT22;5840;46.894;15.542;2023-03-13T03:40:25;0.40;99.90
11569;DHT22;5840;46.894;15.542;2023-03-13T03:42:52;0.40;99.90
11569;DHT22;5840;46.894;15.542;2023-03-13T03:45:20;0.40;99.90
11569;DHT22;5840;46.894;15.542;2023-03-13T03:47:47;0.40;99.90
11569;DHT22;5840;46.894;15.542;2023-03-13T03:50:15;0.40;99.90
11569;DHT22;5840;46.894;15.542;2023-03-13T03:52:42;0.40;99.90
11569;DHT22;5840;46.894;15.542;2023-03-13T03:55:09;0.40;99.90
11569;DHT22;5840;46.894;15.542;2023-03-13T03:57:36;0.40;99.90
11569;DHT22;5840;46.894;15.542;2023-03-13T04:00:04;0.40;99.90
11569;DHT22;5840;46.894;15.542;2023-03-13T04:02:32;0.30;99.90
11569;DHT22;5840;46.894;15.542;2023-03-13T04:04:59;0.30;99.90
11569;DHT22;5840;46.894;15.542;2023-03-13T04:07:28;0.20;99.90
11569;DHT22;5840;46.894;15.542;2023-03-13T04:09:55;0.30;99.90
11569;DHT22;5840;46.894;15.542;2023-03-13T04:12:22;0.30;99.90
11569;DHT22;5840;46.894;15.542;2023-03-13T04:14:49;0.30;99.90
11569;DHT22;5840;46.894;15.542;2023-03-13T04:17:16;0.30;99.90
11569;DHT22;5840;46.894;15.542;2023-03-13T04:19:43;0.30;99.90
11569;DHT22;5840;46.894;15.542;2023-03-13T04:22:10;0.20;99.90
11569;DHT22;5840;46.894;15.542;2023-03-13T04:24:38;0.20;99.90
11569;DHT22;5840;46.894;15.542;2023-03-13T04:27:05;0.20;99.90
11569;DHT22;5840;46.894;15.542;2023-03-13T04:29:32;0.20;99.90
11569;DHT22;5840;46.894;15.542;2023-03-13T04:31:59;0.20;99.90
11569;DHT22;5840;46.894;15.542;2023-03-13T04:34:26;0.10;99.90
11569;DHT22;5840;46.894;15.542;2023-03-13T04:36:53;0.10;99.90
11569;DHT22;5840;46.894;15.542;2023-03-13T04:39:21;0.10;99.90
11569;DHT22;5840;46.894;15.542;2023-03-13T04:41:51;0.10;99.90
11569;DHT22;5840;46.894;15.542;2023-03-13T04:44:18;0.10;99.90
11569;DHT22;5840;46.894;15.542;2023-03-13T04:46:46;0.10;99.90
11569;DHT22;5840;46.894;15.542;2023-03-13T04:49:13;0.10;99.90
11569;DHT22;5840;46.894;15.542;2023-03-13T04:51:41;0.10;99.90
11569;DHT22;5840;46.894;15.542;2023-03-13T04:54:08;0.10;99.90
11569;DHT22;5840;46.894;15.542;2023-03-13T04:56:35;0.10;99.90
11569;DHT22;5840;46.894;15.542;2023-03-13T04:59:03;0.10;99.90
11569;DHT22;5840;46.894;15.542;2023-03-13T05:01:31;0.10;99.90
11569;DHT22;5840;46.894;15.542;2023-03-13T05:03:58;0.00;99.90
11569;DHT22;5840;46.894;15.542;2023-03-13T05:06:25;0.10;99.90
11569;DHT22;5840;46.894;15.542;2023-03-13T05:08:51;0.00;99.90
11569;DHT22;5840;46.894;15.542;2023-03-13T05:11:18;0.00;99.90
11569;DHT22;5840;46.894;15.542;2023-03-13T05:13:45;0.00;99.90
11569;DHT22;5840;46.894;15.542;2023-03-13T05:16:14;0.00;99.90
11569;DHT22;5840;46.894;15.542;2023-03-13T05:18:41;0.00;99.90
11569;DHT22;5840;46.894;15.542;2023-03-13T05:21:08;0.00;99.90
11569;DHT22;5840;46.894;15.542;2023-03-13T05:23:35;0.00;99.90
11569;DHT22;5840;46.894;15.542;2023-03-13T05:26:02;0.00;99.90
11569;DHT22;5840;46.894;15.542;2023-03-13T05:28:29;0.00;99.90
11569;DHT22;5840;46.894;15.542;2023-03-13T05:30:56;0.00;99.90
11569;DHT22;5840;46.894;15.542;2023-03-13T05:33:24;0.10;99.90
11569;DHT22;5840;46.894;15.542;2023-03-13T05:35:51;0.00;99.90
11569;DHT22;5840;46.894;15.542;2023-03-13T05:38:18;0.00;99.90
11569;DHT22;5840;46.894;15.542;2023-03-13T05:40:45;0.00;99.90
11569;DHT22;5840;46.894;15.542;2023-03-13T05:43:12;-0.10;99.90
11569;DHT22;5840;46.894;15.542;2023-03-13T05:45:39;-0.10;99.90
11569;DHT22;5840;46.894;15.542;2023-03-13T05:48:06;-0.10;99.90
11569;DHT22;5840;46.894;15.542;2023-03-13T05:50:34;-0.20;99.90
11569;DHT22;5840;46.894;15.542;2023-03-13T05:53:01;-0.10;99.90
11569;DHT22;5840;46.894;15.542;2023-03-13T05:55:28;-0.10;99.90
11569;DHT22;5840;46.894;15.542;2023-03-13T05:57:55;0.00;99.90
11569;DHT22;5840;46.894;15.542;2023-03-13T06:00:23;0.00;99.90
11569;DHT22;5840;46.894;15.542;2023-03-13T06:02:50;0.00;99.90
11569;DHT22;5840;46.894;15.542;2023-03-13T06:05:17;0.10;99.90
11569;DHT22;5840;46.894;15.542;2023-03-13T06:07:46;0.10;99.90
11569;DHT22;5840;46.894;15.542;2023-03-13T06:10:15;0.20;99.90
11569;DHT22;5840;46.894;15.542;2023-03-13T06:12:42;0.20;99.90
11569;DHT22;5840;46.894;15.542;2023-03-13T06:15:10;0.30;99.90
11569;DHT22;5840;46.894;15.542;2023-03-13T06:17:37;0.30;99.90
11569;DHT22;5840;46.894;15.542;2023-03-13T06:20:04;0.40;99.90
11569;DHT22;5840;46.894;15.542;2023-03-13T06:22:31;0.50;99.90
11569;DHT22;5840;46.894;15.542;2023-03-13T06:25:00;0.60;99.90
11569;DHT22;5840;46.894;15.542;2023-03-13T06:27:27;0.70;99.90
11569;DHT22;5840;46.894;15.542;2023-03-13T06:29:54;0.80;99.90
11569;DHT22;5840;46.894;15.542;2023-03-13T06:32:21;0.90;99.90
11569;DHT22;5840;46.894;15.542;2023-03-13T06:34:48;0.90;99.90
11569;DHT22;5840;46.894;15.542;2023-03-13T06:37:15;0.90;99.90
11569;DHT22;5840;46.894;15.542;2023-03-13T06:39:42;1.00;99.90
11569;DHT22;5840;46.894;15.542;2023-03-13T06:42:10;1.00;99.90
11569;DHT22;5840;46.894;15.542;2023-03-13T06:44:37;1.00;99.90
11569;DHT22;5840;46.894;15.542;2023-03-13T06:47:04;1.00;99.90
11569;DHT22;5840;46.894;15.542;2023-03-13T06:49:31;1.10;99.90
11569;DHT22;5840;46.894;15.542;2023-03-13T06:51:58;1.20;99.90
11569;DHT22;5840;46.894;15.542;2023-03-13T06:54:25;1.30;99.90
11569;DHT22;5840;46.894;15.542;2023-03-13T06:56:52;1.50;99.90
11569;DHT22;5840;46.894;15.542;2023-03-13T06:59:20;1.60;99.90
11569;DHT22;5840;46.894;15.542;2023-03-13T07:01:48;1.70;99.90
11569;DHT22;5840;46.894;15.542;2023-03-13T07:04:14;1.80;99.90
11569;DHT22;5840;46.894;15.542;2023-03-13T07:06:41;1.90;99.90
11569;DHT22;5840;46.894;15.542;2023-03-13T07:09:08;2.00;99.90
11569;DHT22;5840;46.894;15.542;2023-03-13T07:11:36;2.00;99.90
11569;DHT22;5840;46.894;15.542;2023-03-13T07:14:03;2.10;99.90
11569;DHT22;5840;46.894;15.542;2023-03-13T07:16:31;2.10;99.90
11569;DHT22;5840;46.894;15.542;2023-03-13T07:18:58;2.10;99.90
11569;DHT22;5840;46.894;15.542;2023-03-13T07:21:25;2.20;99.90
11569;DHT22;5840;46.894;15.542;2023-03-13T07:23:52;2.30;99.90
11569;DHT22;5840;46.894;15.542;2023-03-13T07:26:20;2.40;99.90
11569;DHT22;5840;46.894;15.542;2023-03-13T07:28:46;2.60;99.90
11569;DHT22;5840;46.894;15.542;2023-03-13T07:31:15;2.80;99.90
11569;DHT22;5840;46.894;15.542;2023-03-13T07:33:43;3.00;99.90
11569;DHT22;5840;46.894;15.542;2023-03-13T07:36:11;3.20;99.90
11569;DHT22;5840;46.894;15.542;2023-03-13T07:38:39;3.40;99.90
11569;DHT22;5840;46.894;15.542;2023-03-13T07:41:06;3.60;99.90
11569;DHT22;5840;46.894;15.542;2023-03-13T07:43:33;3.80;99.90
11569;DHT22;5840;46.894;15.542;2023-03-13T07:46:01;4.00;99.90
11569;DHT22;5840;46.894;15.542;2023-03-13T07:48:30;4.00;99.90
11569;DHT22;5840;46.894;15.542;2023-03-13T07:50:59;4.00;99.90
11569;DHT22;5840;46.894;15.542;2023-03-13T07:53:26;4.00;99.90
11569;DHT22;5840;46.894;15.542;2023-03-13T07:55:55;3.90;99.90
11569;DHT22;5840;46.894;15.542;2023-03-13T07:58:23;3.90;99.90
11569;DHT22;5840;46.894;15.542;2023-03-13T08:00:50;3.80;99.90
11569;DHT22;5840;46.894;15.542;2023-03-13T08:03:17;3.70;99.90
11569;DHT22;5840;46.894;15.542;2023-03-13T08:05:45;3.70;99.90
11569;DHT22;5840;46.894;15.542;2023-03-13T08:08:13;3.70;99.90
11569;DHT22;5840;46.894;15.542;2023-03-13T08:10:40;3.70;99.90
11569;DHT22;5840;46.894;15.542;2023-03-13T08:13:07;3.70;99.90
11569;DHT22;5840;46.894;15.542;2023-03-13T08:15:34;3.80;99.90
11569;DHT22;5840;46.894;15.542;2023-03-13T08:18:01;3.80;99.90
11569;DHT22;5840;46.894;15.542;2023-03-13T08:20:28;4.00;99.90
11569;DHT22;5840;46.894;15.542;2023-03-13T08:22:55;4.10;99.90
11569;DHT22;5840;46.894;15.542;2023-03-13T08:25:24;4.40;99.90
11569;DHT22;5840;46.894;15.542;2023-03-13T08:27:51;4.60;99.90
11569;DHT22;5840;46.894;15.542;2023-03-13T08:30:18;4.60;99.90
11569;DHT22;5840;46.894;15.542;2023-03-13T08:32:45;4.60;99.90
11569;DHT22;5840;46.894;15.542;2023-03-13T08:35:12;4.60;99.90
11569;DHT22;5840;46.894;15.542;2023-03-13T08:37:39;4.60;99.90
11569;DHT22;5840;46.894;15.542;2023-03-13T08:40:07;4.60;99.90
11569;DHT22;5840;46.894;15.542;2023-03-13T08:42:38;4.60;99.90
11569;DHT22;5840;46.894;15.542;2023-03-13T08:45:06;4.70;99.90
11569;DHT22;5840;46.894;15.542;2023-03-13T08:47:33;4.70;99.90
11569;DHT22;5840;46.894;15.542;2023-03-13T08:50:01;4.70;99.90
11569;DHT22;5840;46.894;15.542;2023-03-13T08:52:28;4.70;99.90
11569;DHT22;5840;46.894;15.542;2023-03-13T08:54:54;4.80;99.90
11569;DHT22;5840;46.894;15.542;2023-03-13T08:57:22;4.80;99.90
11569;DHT22;5840;46.894;15.542;2023-03-13T08:59:50;4.90;99.90
11569;DHT22;5840;46.894;15.542;2023-03-13T09:02:17;5.00;99.90
11569;DHT22;5840;46.894;15.542;2023-03-13T09:04:48;5.10;99.90
11569;DHT22;5840;46.894;15.542;2023-03-13T09:07:15;5.20;99.90
11569;DHT22;5840;46.894;15.542;2023-03-13T09:09:42;5.40;99.90
11569;DHT22;5840;46.894;15.542;2023-03-13T09:12:10;5.50;99.90
11569;DHT22;5840;46.894;15.542;2023-03-13T09:14:37;5.70;99.90
11569;DHT22;5840;46.894;15.542;2023-03-13T09:17:06;6.00;99.90
11569;DHT22;5840;46.894;15.542;2023-03-13T09:19:33;6.30;99.90
11569;DHT22;5840;46.894;15.542;2023-03-13T09:22:00;6.40;99.90
11569;DHT22;5840;46.894;15.542;2023-03-13T09:24:27;6.90;99.90
11569;DHT22;5840;46.894;15.542;2023-03-13T09:26:54;7.40;99.90
11569;DHT22;5840;46.894;15.542;2023-03-13T09:29:21;8.00;99.90
11569;DHT22;5840;46.894;15.542;2023-03-13T09:31:48;8.50;99.90
11569;DHT22;5840;46.894;15.542;2023-03-13T09:34:16;8.80;99.90
11569;DHT22;5840;46.894;15.542;2023-03-13T09:36:43;8.80;98.90
11569;DHT22;5840;46.894;15.542;2023-03-13T09:39:10;8.90;99.80
11569;DHT22;5840;46.894;15.542;2023-03-13T09:41:42;9.00;98.50
11569;DHT22;5840;46.894;15.542;2023-03-13T09:44:16;9.10;98.60
11569;DHT22;5840;46.894;15.542;2023-03-13T09:46:58;9.40;96.20
11569;DHT22;5840;46.894;15.542;2023-03-13T09:49:31;9.60;95.80
11569;DHT22;5840;46.894;15.542;2023-03-13T09:52:12;9.60;94.90
11569;DHT22;5840;46.894;15.542;2023-03-13T09:54:42;9.80;97.10
11569;DHT22;5840;46.894;15.542;2023-03-13T09:57:16;10.00;96.00
11569;DHT22;5840;46.894;15.542;2023-03-13T09:59:48;10.20;96.00
11569;DHT22;5840;46.894;15.542;2023-03-13T10:02:24;10.60;95.20
11569;DHT22;5840;46.894;15.542;2023-03-13T10:05:04;10.90;94.50
11569;DHT22;5840;46.894;15.542;2023-03-13T10:07:33;11.20;93.60
11569;DHT22;5840;46.894;15.542;2023-03-13T10:10:02;11.40;93.40
11569;DHT22;5840;46.894;15.542;2023-03-13T10:12:35;11.80;93.00
11569;DHT22;5840;46.894;15.542;2023-03-13T10:15:23;12.20;92.90
11569;DHT22;5840;46.894;15.542;2023-03-13T10:17:53;12.50;92.40
11569;DHT22;5840;46.894;15.542;2023-03-13T10:20:25;12.60;90.50
11569;DHT22;5840;46.894;15.542;2023-03-13T10:22:56;12.90;92.70
11569;DHT22;5840;46.894;15.542;2023-03-13T10:25:28;13.10;90.60
11569;DHT22;5840;46.894;15.542;2023-03-13T10:27:57;13.50;91.50
11569;DHT22;5840;46.894;15.542;2023-03-13T10:30:26;14.00;90.50
11569;DHT22;5840;46.894;15.542;2023-03-13T10:32:58;14.20;89.30
11569;DHT22;5840;46.894;15.542;2023-03-13T10:35:33;14.50;85.50
11569;DHT22;5840;46.894;15.542;2023-03-13T10:38:03;14.70;86.80
11569;DHT22;5840;46.894;15.542;2023-03-13T10:40:31;14.80;86.60
11569;DHT22;5840;46.894;15.542;2023-03-13T10:43:04;14.90;85.20
11569;DHT22;5840;46.894;15.542;2023-03-13T10:45:33;14.90;82.00
11569;DHT22;5840;46.894;15.542;2023-03-13T10:48:03;14.90;83.10
11569;DHT22;5840;46.894;15.542;2023-03-13T10:50:41;14.90;82.30
11569;DHT22;5840;46.894;15.542;2023-03-13T10:53:22;15.00;83.30
11569;DHT22;5840;46.894;15.542;2023-03-13T10:55:52;15.20;84.60
11569;DHT22;5840;46.894;15.542;2023-03-13T10:58:24;15.40;82.70
11569;DHT22;5840;46.894;15.542;2023-03-13T11:01:09;15.40;79.50
11569;DHT22;5840;46.894;15.542;2023-03-13T11:03:42;15.50;80.80
11569;DHT22;5840;46.894;15.542;2023-03-13T11:06:26;15.50;81.10
11569;DHT22;5840;46.894;15.542;2023-03-13T11:09:11;15.30;81.60
11569;DHT22;5840;46.894;15.542;2023-03-13T11:11:47;15.30;80.80
11569;DHT22;5840;46.894;15.542;2023-03-13T11:14:16;15.30;81.30
11569;DHT22;5840;46.894;15.542;2023-03-13T11:16:48;15.40;80.90
11569;DHT22;5840;46.894;15.542;2023-03-13T11:19:37;15.20;81.70
11569;DHT22;5840;46.894;15.542;2023-03-13T11:22:26;15.40;82.30
11569;DHT22;5840;46.894;15.542;2023-03-13T11:25:03;15.50;81.10
11569;DHT22;5840;46.894;15.542;2023-03-13T11:27:40;15.40;81.80
11569;DHT22;5840;46.894;15.542;2023-03-13T11:30:23;15.50;83.30
11569;DHT22;5840;46.894;15.542;2023-03-13T11:33:00;15.60;81.70
11569;DHT22;5840;46.894;15.542;2023-03-13T11:35:36;15.50;78.70
11569;DHT22;5840;46.894;15.542;2023-03-13T11:38:14;15.50;80.60
11569;DHT22;5840;46.894;15.542;2023-03-13T11:40:49;15.20;81.30
11569;DHT22;5840;46.894;15.542;2023-03-13T11:43:26;15.30;81.00
11569;DHT22;5840;46.894;15.542;2023-03-13T11:46:11;15.40;80.20
11569;DHT22;5840;46.894;15.542;2023-03-13T11:48:54;15.70;81.10
11569;DHT22;5840;46.894;15.542;2023-03-13T11:51:26;15.80;80.10
11569;DHT22;5840;46.894;15.542;2023-03-13T11:54:09;15.80;79.80
11569;DHT22;5840;46.894;15.542;2023-03-13T11:56:42;15.90;80.90
11569;DHT22;5840;46.894;15.542;2023-03-13T11:59:34;16.00;82.20
11569;DHT22;5840;46.894;15.542;2023-03-13T12:02:09;16.10;79.00
11569;DHT22;5840;46.894;15.542;2023-03-13T12:04:41;16.20;79.40
11569;DHT22;5840;46.894;15.542;2023-03-13T12:07:18;16.30;77.20
11569;DHT22;5840;46.894;15.542;2023-03-13T12:09:52;16.30;79.40
11569;DHT22;5840;46.894;15.542;2023-03-13T12:12:30;16.40;78.90
11569;DHT22;5840;46.894;15.542;2023-03-13T12:15:04;16.50;77.50
11569;DHT22;5840;46.894;15.542;2023-03-13T12:17:34;16.40;77.40
11569;DHT22;5840;46.894;15.542;2023-03-13T12:20:05;16.70;78.40
11569;DHT22;5840;46.894;15.542;2023-03-13T12:22:37;17.00;81.00
11569;DHT22;5840;46.894;15.542;2023-03-13T12:25:13;17.00;78.10
11569;DHT22;5840;46.894;15.542;2023-03-13T12:27:43;17.10;77.20
11569;DHT22;5840;46.894;15.542;2023-03-13T12:30:20;17.00;78.30
11569;DHT22;5840;46.894;15.542;2023-03-13T12:32:54;16.80;77.70
11569;DHT22;5840;46.894;15.542;2023-03-13T12:35:25;17.00;76.50
11569;DHT22;5840;46.894;15.542;2023-03-13T12:37:59;17.20;77.50
11569;DHT22;5840;46.894;15.542;2023-03-13T12:40:32;17.60;77.20
11569;DHT22;5840;46.894;15.542;2023-03-13T12:43:03;17.80;77.80
11569;DHT22;5840;46.894;15.542;2023-03-13T12:45:32;17.90;79.40
11569;DHT22;5840;46.894;15.542;2023-03-13T12:48:28;18.10;77.50
11569;DHT22;5840;46.894;15.542;2023-03-13T12:51:13;18.20;75.80
11569;DHT22;5840;46.894;15.542;2023-03-13T12:54:12;18.30;72.90
11569;DHT22;5840;46.894;15.542;2023-03-13T12:56:58;18.20;72.10
11569;DHT22;5840;46.894;15.542;2023-03-13T12:59:29;18.10;73.30
11569;DHT22;5840;46.894;15.542;2023-03-13T13:01:58;18.10;75.40
11569;DHT22;5840;46.894;15.542;2023-03-13T13:04:30;18.20;72.30
11569;DHT22;5840;46.894;15.542;2023-03-13T13:07:00;18.20;72.70
11569;DHT22;5840;46.894;15.542;2023-03-13T13:09:29;18.20;73.60
11569;DHT22;5840;46.894;15.542;2023-03-13T13:12:00;18.20;72.10
11569;DHT22;5840;46.894;15.542;2023-03-13T13:17:50;18.60;74.60
11569;DHT22;5840;46.894;15.542;2023-03-13T13:20:41;18.80;72.30
11569;DHT22;5840;46.894;15.542;2023-03-13T13:23:31;18.70;72.80
11569;DHT22;5840;46.894;15.542;2023-03-13T13:32:40;18.60;73.70
11569;DHT22;5840;46.894;15.542;2023-03-13T13:35:32;18.70;71.90
11569;DHT22;5840;46.894;15.542;2023-03-13T13:38:33;18.90;72.10
11569;DHT22;5840;46.894;15.542;2023-03-13T13:41:33;19.20;72.00
11569;DHT22;5840;46.894;15.542;2023-03-13T13:44:25;19.30;71.30
11569;DHT22;5840;46.894;15.542;2023-03-13T13:46:54;19.30;71.10
11569;DHT22;5840;46.894;15.542;2023-03-13T13:49:34;19.30;71.40
11569;DHT22;5840;46.894;15.542;2023-03-13T13:52:31;19.40;71.80
11569;DHT22;5840;46.894;15.542;2023-03-13T13:54:59;19.50;71.30
11569;DHT22;5840;46.894;15.542;2023-03-13T13:57:29;19.30;69.30
11569;DHT22;5840;46.894;15.542;2023-03-13T14:00:00;19.10;70.10
11569;DHT22;5840;46.894;15.542;2023-03-13T14:02:34;18.90;71.10
11569;DHT22;5840;46.894;15.542;2023-03-13T14:05:05;18.80;70.70
11569;DHT22;5840;46.894;15.542;2023-03-13T14:07:49;18.60;70.70
11569;DHT22;5840;46.894;15.542;2023-03-13T14:10:28;18.70;74.10
11569;DHT22;5840;46.894;15.542;2023-03-13T14:12:57;18.70;71.10
11569;DHT22;5840;46.894;15.542;2023-03-13T14:15:25;18.70;71.10
11569;DHT22;5840;46.894;15.542;2023-03-13T14:17:54;18.40;72.70
11569;DHT22;5840;46.894;15.542;2023-03-13T14:20:32;18.30;74.40
11569;DHT22;5840;46.894;15.542;2023-03-13T14:23:00;18.20;74.50
11569;DHT22;5840;46.894;15.542;2023-03-13T14:25:40;18.10;74.40
11569;DHT22;5840;46.894;15.542;2023-03-13T14:28:16;18.00;74.50
11569;DHT22;5840;46.894;15.542;2023-03-13T14:30:44;18.10;75.30
11569;DHT22;5840;46.894;15.542;2023-03-13T14:33:11;18.00;73.80
11569;DHT22;5840;46.894;15.542;2023-03-13T14:35:40;17.80;73.40
11569;DHT22;5840;46.894;15.542;2023-03-13T14:38:15;17.70;75.80
11569;DHT22;5840;46.894;15.542;2023-03-13T14:40:43;17.50;74.60
11569;DHT22;5840;46.894;15.542;2023-03-13T14:43:22;17.40;76.80
11569;DHT22;5840;46.894;15.542;2023-03-13T14:45:50;17.20;76.60
11569;DHT22;5840;46.894;15.542;2023-03-13T14:48:20;17.10;77.00
11569;DHT22;5840;46.894;15.542;2023-03-13T14:50:53;16.90;77.20
11569;DHT22;5840;46.894;15.542;2023-03-13T14:53:23;16.90;76.80
11569;DHT22;5840;46.894;15.542;2023-03-13T14:56:09;16.90;78.90
11569;DHT22;5840;46.894;15.542;2023-03-13T14:58:37;16.90;77.80
11569;DHT22;5840;46.894;15.542;2023-03-13T15:01:12;16.80;78.40
11569;DHT22;5840;46.894;15.542;2023-03-13T15:03:43;16.70;78.70
11569;DHT22;5840;46.894;15.542;2023-03-13T15:06:19;16.70;80.00
11569;DHT22;5840;46.894;15.542;2023-03-13T15:08:48;16.60;79.20
11569;DHT22;5840;46.894;15.542;2023-03-13T15:11:27;16.60;80.80
11569;DHT22;5840;46.894;15.542;2023-03-13T15:13:55;16.60;79.40
11569;DHT22;5840;46.894;15.542;2023-03-13T15:16:24;16.60;79.00
11569;DHT22;5840;46.894;15.542;2023-03-13T15:18:52;16.60;80.00
11569;DHT22;5840;46.894;15.542;2023-03-13T15:21:23;16.70;82.00
11569;DHT22;5840;46.894;15.542;2023-03-13T15:23:53;16.70;82.20
11569;DHT22;5840;46.894;15.542;2023-03-13T15:26:20;16.80;81.00
11569;DHT22;5840;46.894;15.542;2023-03-13T15:28:47;16.80;81.00
11569;DHT22;5840;46.894;15.542;2023-03-13T15:31:14;16.80;79.20
11569;DHT22;5840;46.894;15.542;2023-03-13T15:33:42;16.80;79.00
11569;DHT22;5840;46.894;15.542;2023-03-13T15:36:10;16.80;78.80
11569;DHT22;5840;46.894;15.542;2023-03-13T15:38:39;16.90;79.50
11569;DHT22;5840;46.894;15.542;2023-03-13T15:41:06;16.80;79.10
11569;DHT22;5840;46.894;15.542;2023-03-13T15:43:34;16.80;78.80
11569;DHT22;5840;46.894;15.542;2023-03-13T15:46:02;16.70;78.20
11569;DHT22;5840;46.894;15.542;2023-03-13T15:48:29;16.70;78.40
11569;DHT22;5840;46.894;15.542;2023-03-13T15:50:58;16.60;79.00
11569;DHT22;5840;46.894;15.542;2023-03-13T15:53:27;16.60;79.70
11569;DHT22;5840;46.894;15.542;2023-03-13T15:55:58;16.50;80.10
11569;DHT22;5840;46.894;15.542;2023-03-13T15:58:25;16.50;80.50
11569;DHT22;5840;46.894;15.542;2023-03-13T16:00:53;16.50;81.30
11569;DHT22;5840;46.894;15.542;2023-03-13T16:03:22;16.50;81.10
11569;DHT22;5840;46.894;15.542;2023-03-13T16:05:51;16.30;81.10
11569;DHT22;5840;46.894;15.542;2023-03-13T16:08:19;16.20;81.90
11569;DHT22;5840;46.894;15.542;2023-03-13T16:10:48;16.10;81.90